createdAt,value
2018-04-13T00:00:38.360Z,12.10
2018-04-13T00:03:05.037Z,13.07
2018-04-13T00:05:31.688Z,9.07
2018-04-13T00:07:58.862Z,10.03
2018-04-13T00:10:25.522Z,9.33
2018-04-13T00:12:52.339Z,11.57
2018-04-13T00:15:24.953Z,13.27
2018-04-13T00:17:52.227Z,10.77
2018-04-13T00:20:18.869Z,9.20
2018-04-13T00:22:45.640Z,11.80
2018-04-13T00:25:12.276Z,11.37
2018-04-13T00:27:38.944Z,12.33
2018-04-13T00:30:06.414Z,10.90
2018-04-13T00:32:38.880Z,20.93
2018-04-13T00:35:05.581Z,12.10
2018-04-13T00:37:32.222Z,10.47
2018-04-13T00:40:04.774Z,13.10
2018-04-13T00:42:31.452Z,16.97
2018-04-13T00:44:58.141Z,13.03
2018-04-13T00:47:24.820Z,10.70
2018-04-13T00:49:51.513Z,10.20
2018-04-13T00:52:18.201Z,12.20
2018-04-13T00:54:50.887Z,10.40
2018-04-13T00:57:23.595Z,10.50
2018-04-13T00:59:50.269Z,9.13
2018-04-13T01:02:22.941Z,12.03
2018-04-13T01:04:49.634Z,11.00
2018-04-13T01:07:16.341Z,11.33
2018-04-13T01:09:48.743Z,10.37
2018-04-13T01:12:15.455Z,9.23
2018-04-13T01:14:42.124Z,13.63
2018-04-13T01:17:08.841Z,10.77
2018-04-13T01:19:35.495Z,11.37
2018-04-13T01:22:02.192Z,12.77
2018-04-13T01:24:28.832Z,17.10
2018-04-13T01:26:55.542Z,12.60
2018-04-13T01:29:28.338Z,13.40
2018-04-13T01:32:00.789Z,9.97
2018-04-13T01:34:33.313Z,11.80
2018-04-13T01:37:00.253Z,9.37
2018-04-13T01:39:27.065Z,10.50
2018-04-13T01:41:53.723Z,11.27
2018-04-13T01:44:20.416Z,13.03
2018-04-13T01:46:47.071Z,15.63
2018-04-13T01:49:13.758Z,14.40
2018-04-13T01:51:46.325Z,12.37
2018-04-13T01:54:13.587Z,10.93
2018-04-13T01:56:40.230Z,13.23
2018-04-13T01:59:06.965Z,12.73
2018-04-13T02:01:33.624Z,11.47
2018-04-13T02:04:00.295Z,10.00
2018-04-13T02:06:26.956Z,14.77
2018-04-13T02:08:53.644Z,14.87
2018-04-13T02:11:20.340Z,14.80
2018-04-13T02:13:46.997Z,16.47
2018-04-13T02:16:13.675Z,14.50
2018-04-13T02:18:40.337Z,20.47
2018-04-13T02:21:07.150Z,13.13
2018-04-13T02:23:33.857Z,12.13
2018-04-13T02:26:00.544Z,16.17
2018-04-13T02:28:27.225Z,14.40
2018-04-13T02:30:59.588Z,23.20
2018-04-13T02:33:27.122Z,15.17
2018-04-13T02:35:53.794Z,12.27
2018-04-13T02:38:26.256Z,14.33
2018-04-13T02:40:58.827Z,19.97
2018-04-13T02:43:25.503Z,11.73
2018-04-13T02:45:57.942Z,16.07
2018-04-13T02:48:24.634Z,15.30
2018-04-13T02:50:51.268Z,15.43
2018-04-13T02:53:24.041Z,11.90
2018-04-13T02:55:56.320Z,14.07
2018-04-13T02:58:22.968Z,14.40
2018-04-13T03:00:55.447Z,14.63
2018-04-13T03:03:27.869Z,13.00
2018-04-13T03:05:55.054Z,13.40
2018-04-13T03:08:21.739Z,11.13
2018-04-13T03:10:48.423Z,13.80
2018-04-13T03:13:15.094Z,22.57
2018-04-13T03:15:47.447Z,15.23
2018-04-13T03:18:14.157Z,15.30
2018-04-13T03:20:40.921Z,15.87
2018-04-13T03:23:07.607Z,16.57
2018-04-13T03:25:34.304Z,14.70
2018-04-13T03:28:06.760Z,19.47
2018-04-13T03:30:33.494Z,14.07
2018-04-13T03:33:05.995Z,14.10
2018-04-13T03:35:32.682Z,18.30
2018-04-13T03:37:59.372Z,15.73
2018-04-13T03:40:26.037Z,18.90
2018-04-13T03:42:52.680Z,15.13
2018-04-13T03:45:19.476Z,14.67
2018-04-13T03:47:46.138Z,13.17
2018-04-13T03:50:12.810Z,23.00
2018-04-13T03:52:39.460Z,17.97
2018-04-13T03:55:06.137Z,28.03
2018-04-13T03:57:32.791Z,14.80
2018-04-13T03:59:59.679Z,15.00
2018-04-13T04:02:37.994Z,14.27
2018-04-13T04:05:05.389Z,15.87
2018-04-13T04:07:37.839Z,16.57
2018-04-13T04:10:04.534Z,16.07
2018-04-13T04:12:31.193Z,15.87
2018-04-13T04:15:03.556Z,15.50
2018-04-13T04:17:30.263Z,17.43
2018-04-13T04:20:02.887Z,17.00
2018-04-13T04:22:35.336Z,16.80
2018-04-13T04:25:07.861Z,15.67
2018-04-13T04:27:34.587Z,16.57
2018-04-13T04:30:01.244Z,16.87
2018-04-13T04:32:28.123Z,16.33
2018-04-13T04:34:54.820Z,13.83
2018-04-13T04:37:21.517Z,14.87
2018-04-13T04:39:48.224Z,15.87
2018-04-13T04:42:14.941Z,14.87
2018-04-13T04:44:47.447Z,18.13
2018-04-13T04:47:14.093Z,18.07
2018-04-13T04:49:40.784Z,16.37
2018-04-13T04:52:07.472Z,14.67
2018-04-13T04:54:39.920Z,18.50
2018-04-13T04:57:06.602Z,18.17
2018-04-13T04:59:33.279Z,15.40
2018-04-13T05:02:05.715Z,15.33
2018-04-13T05:04:32.365Z,14.60
2018-04-13T05:07:04.905Z,18.37
2018-04-13T05:09:31.684Z,14.70
2018-04-13T05:11:58.381Z,16.43
2018-04-13T05:14:25.163Z,15.57
2018-04-13T05:16:51.847Z,16.23
2018-04-13T05:19:18.555Z,18.87
2018-04-13T05:21:45.223Z,22.87
2018-04-13T05:24:11.955Z,18.97
2018-04-13T05:26:38.668Z,18.80
2018-04-13T05:29:05.387Z,14.87
2018-04-13T05:31:37.852Z,14.53
2018-04-13T05:34:10.162Z,13.93
2018-04-13T05:36:42.463Z,16.10
2018-04-13T05:39:15.013Z,13.97
2018-04-13T05:41:41.736Z,16.27
2018-04-13T05:44:08.451Z,15.77
2018-04-13T05:46:41.145Z,11.37
2018-04-13T05:49:07.816Z,14.33
2018-04-13T05:51:34.495Z,16.23
2018-04-13T05:54:01.228Z,15.33
2018-04-13T05:56:33.680Z,14.23
2018-04-13T05:59:00.401Z,13.97
2018-04-13T06:01:27.118Z,15.90
2018-04-13T06:03:53.923Z,15.37
2018-04-13T06:06:20.636Z,12.90
2018-04-13T06:08:47.310Z,12.57
2018-04-13T06:11:14.012Z,13.83
2018-04-13T06:13:40.691Z,13.73
2018-04-13T06:16:07.322Z,13.13
2018-04-13T06:18:34.028Z,14.10
2018-04-13T06:21:00.731Z,17.80
2018-04-13T06:23:33.355Z,15.03
2018-04-13T06:26:00.046Z,15.87
2018-04-13T06:28:26.758Z,13.87
2018-04-13T06:30:53.419Z,12.40
2018-04-13T06:33:20.127Z,14.90
2018-04-13T06:35:46.897Z,15.30
2018-04-13T06:38:13.590Z,14.97
2018-04-13T06:40:46.152Z,25.53
2018-04-13T06:43:12.909Z,17.00
2018-04-13T06:45:39.594Z,13.63
2018-04-13T06:48:06.288Z,15.40
2018-04-13T06:50:32.933Z,14.43
2018-04-13T06:53:05.722Z,15.33
2018-04-13T06:55:32.558Z,15.53
2018-04-13T06:58:05.099Z,16.23
2018-04-13T07:00:31.808Z,20.97
2018-04-13T07:02:58.528Z,17.63
2018-04-13T07:05:25.237Z,15.87
2018-04-13T07:07:51.969Z,16.87
2018-04-13T07:10:19.353Z,16.20
2018-04-13T07:12:51.817Z,16.83
2018-04-13T07:15:24.467Z,18.47
2018-04-13T07:17:51.153Z,16.20
2018-04-13T07:20:17.877Z,16.33
2018-04-13T07:22:50.991Z,15.67
2018-04-13T07:25:17.720Z,15.40
2018-04-13T07:27:44.439Z,19.43
2018-04-13T07:30:16.950Z,16.00
2018-04-13T07:32:44.018Z,21.13
2018-04-13T07:35:10.469Z,22.50
2018-04-13T07:37:38.128Z,14.37
2018-04-13T07:40:04.899Z,17.23
2018-04-13T07:42:31.558Z,17.17
2018-04-13T07:44:58.409Z,14.87
2018-04-13T07:47:36.805Z,19.27
2018-04-13T07:50:03.525Z,17.73
2018-04-13T07:52:41.829Z,16.20
2018-04-13T07:55:08.506Z,16.53
2018-04-13T07:57:35.152Z,16.20
2018-04-13T08:00:02.832Z,18.93
2018-04-13T08:02:35.558Z,20.13
2018-04-13T08:05:01.894Z,18.80
2018-04-13T08:07:28.624Z,18.17
2018-04-13T08:09:55.294Z,19.60
2018-04-13T08:12:22.032Z,17.50
2018-04-13T08:14:54.581Z,14.87
2018-04-13T08:17:21.271Z,14.63
2018-04-13T08:19:47.954Z,20.10
2018-04-13T08:22:20.536Z,32.73
2018-04-13T08:24:47.187Z,18.80
2018-04-13T08:27:19.663Z,17.27
2018-04-13T08:29:46.361Z,19.87
2018-04-13T08:32:13.069Z,19.13
2018-04-13T08:34:39.705Z,16.83
2018-04-13T08:37:18.328Z,18.50
2018-04-13T08:39:50.823Z,17.27
2018-04-13T08:42:23.448Z,19.27
2018-04-13T08:44:57.079Z,17.43
2018-04-13T08:47:23.874Z,22.63
2018-04-13T08:49:50.627Z,18.17
2018-04-13T08:52:18.236Z,18.47
2018-04-13T08:54:44.937Z,18.73
2018-04-13T08:57:17.345Z,18.93
2018-04-13T08:59:44.640Z,19.30
2018-04-13T09:02:11.369Z,20.70
2018-04-13T09:04:38.050Z,31.70
2018-04-13T09:07:04.816Z,17.67
2018-04-13T09:09:31.475Z,17.20
2018-04-13T09:11:58.173Z,17.73
2018-04-13T09:14:24.841Z,17.77
2018-04-13T09:16:51.518Z,23.20
2018-04-13T09:19:18.261Z,27.40
2018-04-13T09:21:44.918Z,18.67
2018-04-13T09:24:11.590Z,17.00
2018-04-13T09:26:38.241Z,18.17
2018-04-13T09:29:04.942Z,14.47
2018-04-13T09:31:31.643Z,14.80
2018-04-13T09:34:04.067Z,15.83
2018-04-13T09:36:30.777Z,17.40
2018-04-13T09:38:57.477Z,28.53
2018-04-13T09:41:29.869Z,15.53
2018-04-13T09:43:56.548Z,13.53
2018-04-13T09:46:24.406Z,16.17
2018-04-13T09:48:51.080Z,11.73
2018-04-13T09:51:17.765Z,14.07
2018-04-13T09:53:50.350Z,13.20
2018-04-13T09:56:17.035Z,11.80
2018-04-13T09:58:43.736Z,11.60
2018-04-13T10:01:14.219Z,14.97
2018-04-13T10:03:46.724Z,14.50
2018-04-13T10:06:14.392Z,13.07
2018-04-13T10:08:42.525Z,13.40
2018-04-13T10:11:10.358Z,14.90
2018-04-13T10:13:42.950Z,12.90
2018-04-13T10:16:11.006Z,9.93
2018-04-13T10:18:41.933Z,15.20
2018-04-13T10:21:11.704Z,10.73
2018-04-13T10:23:44.555Z,12.50
2018-04-13T10:26:12.086Z,12.43
2018-04-13T10:28:56.453Z,16.90
2018-04-13T10:31:43.113Z,12.43
2018-04-13T10:34:12.553Z,13.50
2018-04-13T10:36:44.965Z,13.07
2018-04-13T10:39:13.877Z,12.83
2018-04-13T10:44:16.203Z,15.63
2018-04-13T10:46:43.296Z,11.27
2018-04-13T10:49:11.020Z,12.10
2018-04-13T10:51:37.698Z,12.27
2018-04-13T10:54:04.379Z,12.60
2018-04-13T10:56:31.050Z,11.47
2018-04-13T10:58:57.735Z,19.60
2018-04-13T11:01:24.389Z,17.50
2018-04-13T11:03:51.060Z,12.97
2018-04-13T11:06:23.560Z,21.73
2018-04-13T11:08:50.250Z,11.57
2018-04-13T11:11:16.918Z,10.13
2018-04-13T11:13:43.715Z,14.03
2018-04-13T11:16:16.076Z,14.10
2018-04-13T11:18:42.877Z,17.67
2018-04-13T11:21:15.383Z,12.67
2018-04-13T11:23:42.037Z,12.67
2018-04-13T11:26:08.724Z,13.53
2018-04-13T11:28:35.422Z,12.60
2018-04-13T11:31:02.073Z,12.63
2018-04-13T11:33:28.740Z,10.90
2018-04-13T11:35:55.504Z,12.90
2018-04-13T11:38:22.166Z,11.70
2018-04-13T11:40:48.948Z,12.33
2018-04-13T11:43:15.679Z,12.07
2018-04-13T11:45:42.340Z,9.73
2018-04-13T11:48:09.000Z,16.17
2018-04-13T11:50:41.414Z,12.37
2018-04-13T11:53:14.024Z,12.23
2018-04-13T11:55:40.671Z,11.60
2018-04-13T11:58:07.318Z,14.43
2018-04-13T12:00:34.097Z,12.33
2018-04-13T12:03:00.769Z,15.60
2018-04-13T12:05:27.464Z,9.33
2018-04-13T12:07:54.192Z,13.97
2018-04-13T12:10:20.879Z,13.20
2018-04-13T12:12:47.544Z,16.40
2018-04-13T12:15:14.244Z,8.47
2018-04-13T12:17:40.900Z,10.80
2018-04-13T12:20:07.739Z,14.13
2018-04-13T12:22:34.377Z,11.57
2018-04-13T12:25:01.060Z,14.23
2018-04-13T12:27:27.701Z,12.67
2018-04-13T12:29:54.404Z,12.50
2018-04-13T12:32:21.076Z,11.73
2018-04-13T12:34:48.389Z,10.10
2018-04-13T12:37:16.001Z,11.00
2018-04-13T12:39:42.653Z,14.20
2018-04-13T12:42:12.825Z,13.73
2018-04-13T12:44:40.489Z,9.27
2018-04-13T12:47:07.168Z,9.80
2018-04-13T12:49:33.857Z,14.77
2018-04-13T12:52:01.398Z,11.70
2018-04-13T12:54:28.660Z,8.93
2018-04-13T12:56:56.070Z,14.17
2018-04-13T12:59:30.568Z,7.30
2018-04-13T13:01:57.299Z,8.70
2018-04-13T13:04:23.965Z,11.73
2018-04-13T13:06:50.754Z,11.67
2018-04-13T13:09:18.195Z,8.37
2018-04-13T13:11:45.011Z,10.10
2018-04-13T13:14:11.700Z,10.67
2018-04-13T13:16:38.340Z,10.67
2018-04-13T13:19:07.777Z,6.70
2018-04-13T13:21:38.167Z,8.23
2018-04-13T13:24:07.079Z,7.20
2018-04-13T13:26:38.284Z,7.07
2018-04-13T13:29:06.658Z,4.57
2018-04-13T13:31:33.855Z,6.23
2018-04-13T13:34:10.945Z,8.80
2018-04-13T13:36:39.141Z,4.43
2018-04-13T13:39:08.883Z,5.83
2018-04-13T13:41:41.323Z,12.20
2018-04-13T13:44:18.375Z,5.03
2018-04-13T13:46:54.921Z,3.10
2018-04-13T13:49:29.130Z,6.60
2018-04-13T13:51:59.893Z,9.53
2018-04-13T13:54:31.855Z,4.53
2018-04-13T13:57:02.372Z,4.40
2018-04-13T13:59:32.115Z,6.40
2018-04-13T14:02:00.204Z,7.03
2018-04-13T14:04:33.368Z,9.67
2018-04-13T14:07:00.163Z,4.37
2018-04-13T14:09:28.196Z,7.47
2018-04-13T14:11:54.863Z,4.97
2018-04-13T14:14:21.535Z,6.83
2018-04-13T14:16:48.845Z,6.03
2018-04-13T14:19:15.509Z,5.45
2018-04-13T14:21:42.749Z,5.73
2018-04-13T14:24:10.779Z,5.67
2018-04-13T14:26:37.450Z,5.13
2018-04-13T14:29:04.732Z,4.90
2018-04-13T14:31:31.573Z,4.60
2018-04-13T14:33:58.314Z,6.17
2018-04-13T14:36:24.993Z,2.93
2018-04-13T14:38:51.647Z,7.03
2018-04-13T14:41:18.314Z,5.17
2018-04-13T14:43:45.064Z,9.55
2018-04-13T14:46:11.734Z,4.87
2018-04-13T14:48:38.400Z,4.07
2018-04-13T14:51:05.099Z,3.90
2018-04-13T14:53:31.808Z,7.83
2018-04-13T14:55:58.459Z,4.35
2018-04-13T14:58:25.145Z,15.50
2018-04-13T15:00:51.827Z,6.12
2018-04-13T15:03:18.563Z,6.28
2018-04-13T15:05:45.237Z,5.40
2018-04-13T15:08:11.943Z,7.00
2018-04-13T15:10:38.649Z,8.40
2018-04-13T15:13:05.284Z,9.40
2018-04-13T15:15:31.925Z,6.95
2018-04-13T15:17:58.661Z,7.12
2018-04-13T15:20:25.306Z,7.80
2018-04-13T15:22:52.011Z,8.50
2018-04-13T15:25:18.683Z,5.65
2018-04-13T15:27:46.170Z,6.60
2018-04-13T15:30:13.473Z,7.12
2018-04-13T15:32:41.417Z,12.20
2018-04-13T15:35:08.099Z,6.10
2018-04-13T15:37:34.761Z,10.35
2018-04-13T15:40:01.456Z,5.28
2018-04-13T15:42:28.124Z,7.63
2018-04-13T15:44:54.939Z,6.43
2018-04-13T15:47:22.095Z,10.33
2018-04-13T15:49:48.943Z,6.97
2018-04-13T15:52:15.588Z,5.03
2018-04-13T15:54:42.250Z,7.23
2018-04-13T15:57:08.964Z,5.50
2018-04-13T15:59:35.645Z,8.80
2018-04-13T16:02:02.308Z,7.90
2018-04-13T16:04:28.980Z,6.55
2018-04-13T16:06:55.618Z,4.70
2018-04-13T16:09:22.303Z,6.67
2018-04-13T16:11:48.972Z,4.73
2018-04-13T16:14:15.675Z,10.07
2018-04-13T16:16:42.320Z,7.10
2018-04-13T16:19:09.880Z,6.80
2018-04-13T16:21:37.475Z,5.40
2018-04-13T16:24:04.174Z,4.67
2018-04-13T16:26:31.792Z,6.60
2018-04-13T16:28:58.493Z,9.93
2018-04-13T16:31:25.152Z,7.23
2018-04-13T16:33:51.930Z,8.57
2018-04-13T16:36:18.613Z,6.60
2018-04-13T16:38:45.357Z,11.00
2018-04-13T16:41:12.059Z,10.50
2018-04-13T16:43:38.748Z,9.93
2018-04-13T16:46:05.460Z,14.13
2018-04-13T16:48:32.129Z,11.20
2018-04-13T16:50:58.790Z,14.60
2018-04-13T16:53:25.477Z,11.70
2018-04-13T16:55:52.971Z,12.40
2018-04-13T16:58:19.644Z,4.63
2018-04-13T17:00:46.310Z,4.73
2018-04-13T17:03:13.071Z,5.27
2018-04-13T17:05:39.754Z,1.40
2018-04-13T17:08:06.475Z,2.17
2018-04-13T17:10:33.121Z,2.00
2018-04-13T17:12:59.798Z,3.60
2018-04-13T17:15:26.428Z,1.33
2018-04-13T17:17:53.144Z,2.43
2018-04-13T17:20:19.797Z,2.60
2018-04-13T17:22:46.425Z,1.23
2018-04-13T17:25:13.083Z,2.77
2018-04-13T17:27:39.756Z,1.30
2018-04-13T17:30:06.439Z,1.10
2018-04-13T17:32:33.149Z,2.57
2018-04-13T17:34:59.849Z,1.90
2018-04-13T17:37:26.536Z,1.20
2018-04-13T17:39:53.353Z,2.57
2018-04-13T17:42:20.013Z,4.70
2018-04-13T17:44:47.627Z,3.77
2018-04-13T17:47:14.287Z,3.13
2018-04-13T17:49:41.669Z,2.43
2018-04-13T17:52:08.375Z,5.07
2018-04-13T17:54:35.076Z,2.23
2018-04-13T17:57:01.714Z,6.17
2018-04-13T17:59:29.293Z,2.67
2018-04-13T18:01:55.952Z,3.17
2018-04-13T18:04:22.734Z,3.20
2018-04-13T18:06:49.461Z,1.67
2018-04-13T18:09:16.114Z,2.57
2018-04-13T18:11:42.808Z,1.70
2018-04-13T18:14:09.440Z,1.13
2018-04-13T18:16:36.096Z,2.13
2018-04-13T18:19:02.733Z,2.00
2018-04-13T18:21:29.397Z,3.77
2018-04-13T18:23:56.070Z,3.27
2018-04-13T18:26:22.699Z,3.10
2018-04-13T18:28:49.388Z,3.40
2018-04-13T18:31:16.148Z,3.07
2018-04-13T18:33:42.807Z,1.20
2018-04-13T18:36:12.515Z,2.20
2018-04-13T18:38:39.151Z,1.50
2018-04-13T18:41:05.856Z,2.37
2018-04-13T18:43:32.482Z,2.73
2018-04-13T18:45:59.152Z,3.00
2018-04-13T18:48:27.544Z,3.77
2018-04-13T18:50:54.388Z,2.73
2018-04-13T18:53:21.039Z,4.80
2018-04-13T18:55:49.445Z,1.87
2018-04-13T18:58:16.236Z,2.43
2018-04-13T19:00:43.627Z,1.60
2018-04-13T19:03:10.301Z,3.27
2018-04-13T19:05:36.961Z,3.97
2018-04-13T19:08:03.657Z,2.47
2018-04-13T19:10:30.296Z,2.50
2018-04-13T19:12:57.001Z,2.83
2018-04-13T19:15:23.640Z,3.30
2018-04-13T19:17:50.330Z,2.53
2018-04-13T19:20:17.009Z,6.37
2018-04-13T19:22:43.688Z,2.93
2018-04-13T19:25:10.354Z,3.03
2018-04-13T19:27:37.052Z,3.17
2018-04-13T19:30:03.694Z,4.40
2018-04-13T19:32:30.375Z,6.43
2018-04-13T19:34:57.009Z,4.43
2018-04-13T19:37:23.691Z,4.97
2018-04-13T19:39:50.356Z,3.73
2018-04-13T19:42:17.028Z,4.77
2018-04-13T19:44:43.737Z,5.77
2018-04-13T19:47:10.720Z,3.67
2018-04-13T19:49:37.513Z,3.47
2018-04-13T19:52:04.258Z,2.97
2018-04-13T19:54:31.061Z,5.53
2018-04-13T19:56:57.745Z,3.20
2018-04-13T19:59:28.050Z,4.47
2018-04-13T20:01:54.916Z,7.80
2018-04-13T20:04:24.713Z,8.23
2018-04-13T20:06:51.861Z,12.00
2018-04-13T20:09:18.611Z,10.30
2018-04-13T20:11:45.377Z,10.07
2018-04-13T20:14:27.156Z,10.03
2018-04-13T20:16:54.055Z,12.60
2018-04-13T20:19:21.102Z,13.77
2018-04-13T20:21:47.964Z,13.73
2018-04-13T20:24:14.629Z,10.90
2018-04-13T20:26:41.264Z,14.97
2018-04-13T20:29:07.920Z,14.53
2018-04-13T20:31:34.579Z,14.90
2018-04-13T20:34:01.263Z,13.93
2018-04-13T20:36:27.917Z,15.47
2018-04-13T20:38:54.597Z,15.83
2018-04-13T20:41:21.276Z,13.00
2018-04-13T20:43:47.936Z,15.93
2018-04-13T20:46:14.601Z,12.60
2018-04-13T20:48:41.228Z,13.33
2018-04-13T20:51:07.931Z,14.40
2018-04-13T20:53:34.620Z,17.17
2018-04-13T20:56:01.485Z,13.87
2018-04-13T20:58:28.133Z,14.30
2018-04-13T21:00:54.795Z,16.90
2018-04-13T21:03:21.440Z,12.77
2018-04-13T21:05:48.261Z,17.80
2018-04-13T21:08:14.925Z,14.50
2018-04-13T21:10:41.594Z,17.47
2018-04-13T21:13:08.244Z,14.60
2018-04-13T21:15:34.876Z,18.53
2018-04-13T21:18:01.617Z,22.07
2018-04-13T21:20:28.286Z,19.53
2018-04-13T21:22:54.970Z,19.50
2018-04-13T21:25:22.016Z,21.47
2018-04-13T21:27:48.693Z,16.90
2018-04-13T21:30:15.356Z,19.87
2018-04-13T21:32:42.068Z,22.47
2018-04-13T21:35:08.748Z,21.13
2018-04-13T21:37:35.390Z,24.37
2018-04-13T21:40:02.058Z,19.83
2018-04-13T21:42:28.748Z,20.93
2018-04-13T21:44:55.397Z,22.50
2018-04-13T21:47:22.096Z,19.23
2018-04-13T21:49:48.765Z,22.27
2018-04-13T21:52:15.530Z,21.00
2018-04-13T21:54:42.213Z,19.30
2018-04-13T21:57:08.881Z,29.90
2018-04-13T21:59:35.550Z,19.80
2018-04-13T22:02:02.193Z,18.63
2018-04-13T22:04:28.901Z,19.00
2018-04-13T22:06:55.566Z,22.70
2018-04-13T22:09:22.266Z,17.30
2018-04-13T22:11:48.935Z,23.07
2018-04-13T22:14:21.432Z,18.30
2018-04-13T22:16:48.120Z,20.73
2018-04-13T22:19:14.801Z,20.13
2018-04-13T22:21:41.442Z,21.00
2018-04-13T22:24:09.037Z,20.73
2018-04-13T22:26:36.899Z,23.40
2018-04-13T22:29:03.880Z,22.53
2018-04-13T22:31:31.508Z,22.73
2018-04-13T22:33:58.188Z,26.40
2018-04-13T22:36:25.310Z,17.77
2018-04-13T22:38:51.962Z,18.17
2018-04-13T22:41:18.682Z,22.07
2018-04-13T22:43:45.347Z,18.60
2018-04-13T22:46:12.090Z,21.00
2018-04-13T22:48:38.745Z,18.60
2018-04-13T22:51:05.431Z,20.07
2018-04-13T22:53:32.199Z,16.20
2018-04-13T22:55:58.898Z,20.73
2018-04-13T22:58:25.550Z,18.87
2018-04-13T23:00:52.242Z,21.17
2018-04-13T23:03:18.929Z,19.53
2018-04-13T23:05:45.594Z,27.37
2018-04-13T23:08:12.259Z,18.73
2018-04-13T23:10:38.913Z,22.80
2018-04-13T23:13:05.588Z,21.47
2018-04-13T23:15:32.255Z,22.33
2018-04-13T23:17:58.928Z,21.87
2018-04-13T23:20:25.604Z,19.43
2018-04-13T23:22:52.300Z,20.80
2018-04-13T23:25:18.952Z,25.13
2018-04-13T23:27:45.623Z,20.57
2018-04-13T23:30:12.374Z,24.27
2018-04-13T23:32:39.056Z,20.77
2018-04-13T23:35:05.734Z,25.00
2018-04-13T23:37:32.412Z,20.47
2018-04-13T23:39:59.292Z,22.97
2018-04-13T23:42:25.983Z,20.03
2018-04-13T23:44:52.654Z,19.07
2018-04-13T23:47:19.444Z,18.57
2018-04-13T23:49:46.088Z,22.10
2018-04-13T23:52:12.747Z,20.80
2018-04-13T23:54:39.881Z,19.60
2018-04-13T23:57:06.544Z,24.93
2018-04-13T23:59:33.809Z,23.13
